createdAt,value
2022-12-17T00:00:53.035Z,14.00
2022-12-17T00:06:15.659Z,19.75
2022-12-17T00:11:37.967Z,21.75
2022-12-17T00:17:00.830Z,24.00
2022-12-17T00:22:23.599Z,27.00
2022-12-17T00:27:46.486Z,24.50
2022-12-17T00:33:09.303Z,29.00
2022-12-17T00:38:36.149Z,29.50
2022-12-17T00:43:58.785Z,31.00
2022-12-17T00:49:21.547Z,31.75
2022-12-17T00:54:44.422Z,31.75
2022-12-17T01:00:07.137Z,31.25
2022-12-17T01:05:30.061Z,31.50
2022-12-17T01:10:57.679Z,27.00
2022-12-17T01:16:27.644Z,30.25
2022-12-17T01:21:50.529Z,30.50
2022-12-17T01:27:13.304Z,27.75
2022-12-17T01:32:36.228Z,33.75
2022-12-17T01:37:58.937Z,30.25
2022-12-17T01:43:21.452Z,29.00
2022-12-17T01:48:51.118Z,25.50
2022-12-17T01:54:14.976Z,30.75
2022-12-17T01:59:39.891Z,28.25
2022-12-17T02:05:03.291Z,20.75
2022-12-17T02:10:32.211Z,22.00
2022-12-17T02:16:04.338Z,24.25
2022-12-17T02:21:28.554Z,24.75
2022-12-17T02:26:54.709Z,21.50
2022-12-17T02:32:17.767Z,21.50
2022-12-17T02:37:40.873Z,18.50
2022-12-17T02:43:06.791Z,22.50
2022-12-17T02:48:32.060Z,22.50
2022-12-17T02:53:54.991Z,16.00
2022-12-17T02:59:19.014Z,20.50
2022-12-17T03:04:42.377Z,20.00
2022-12-17T03:10:05.361Z,23.00
2022-12-17T03:15:29.282Z,21.00
2022-12-17T03:20:51.742Z,20.50
2022-12-17T03:26:17.432Z,16.00
2022-12-17T03:31:40.010Z,16.50
2022-12-17T03:37:03.040Z,18.75
2022-12-17T03:42:25.756Z,18.00
2022-12-17T03:47:51.301Z,16.00
2022-12-17T03:53:14.104Z,21.25
2022-12-17T03:58:36.759Z,20.00
2022-12-17T04:03:59.914Z,18.00
2022-12-17T04:09:22.995Z,16.75
2022-12-17T04:14:45.691Z,17.50
2022-12-17T04:20:08.125Z,17.00
2022-12-17T04:25:31.114Z,14.25
2022-12-17T04:30:54.114Z,14.75
2022-12-17T04:36:17.243Z,14.75
2022-12-17T04:41:40.130Z,14.00
2022-12-17T04:47:02.731Z,13.50
2022-12-17T04:52:25.283Z,19.00
2022-12-17T04:57:49.596Z,15.50
2022-12-17T05:03:12.916Z,15.00
2022-12-17T05:08:39.727Z,16.75
2022-12-17T05:14:03.929Z,13.50
2022-12-17T05:19:26.865Z,15.50
2022-12-17T05:24:49.840Z,14.25
2022-12-17T05:30:13.319Z,12.25
2022-12-17T05:35:36.169Z,15.50
2022-12-17T05:40:59.031Z,13.50
2022-12-17T05:46:22.232Z,14.00
2022-12-17T05:51:44.983Z,17.50
2022-12-17T05:57:07.793Z,16.50
2022-12-17T06:02:31.269Z,14.00
2022-12-17T06:07:55.979Z,14.50
2022-12-17T06:13:19.405Z,15.00
2022-12-17T06:18:42.130Z,16.75
2022-12-17T06:24:04.809Z,15.75
2022-12-17T06:29:30.957Z,14.75
2022-12-17T06:34:54.168Z,15.75
2022-12-17T06:40:18.066Z,16.25
2022-12-17T06:45:40.697Z,15.25
2022-12-17T06:51:03.423Z,19.00
2022-12-17T06:56:26.728Z,14.75
2022-12-17T07:01:49.660Z,14.25
2022-12-17T07:07:12.701Z,13.75
2022-12-17T07:12:35.604Z,12.50
2022-12-17T07:17:58.382Z,13.00
2022-12-17T07:23:21.446Z,14.25
2022-12-17T07:28:44.524Z,15.25
2022-12-17T07:34:25.156Z,19.75
2022-12-17T07:39:47.811Z,13.00
2022-12-17T07:45:10.987Z,16.00
2022-12-17T07:50:33.851Z,15.50
2022-12-17T07:55:56.997Z,13.00
2022-12-17T08:01:20.756Z,18.75
2022-12-17T08:06:43.770Z,16.25
2022-12-17T08:12:06.199Z,15.25
2022-12-17T08:17:28.757Z,17.25
2022-12-17T08:22:52.106Z,14.50
2022-12-17T08:28:49.045Z,15.00
2022-12-17T08:34:07.561Z,17.75
2022-12-17T08:39:30.632Z,15.75
2022-12-17T08:44:53.177Z,14.50
2022-12-17T08:50:15.995Z,14.00
2022-12-17T08:55:39.196Z,13.75
2022-12-17T09:01:02.029Z,13.00
2022-12-17T09:06:26.208Z,14.00
2022-12-17T09:11:49.060Z,13.50
2022-12-17T09:17:11.722Z,13.25
2022-12-17T09:22:34.500Z,14.00
2022-12-17T09:27:58.951Z,13.00
2022-12-17T09:33:21.465Z,14.50
2022-12-17T09:38:44.443Z,13.50
2022-12-17T09:44:17.788Z,18.00
2022-12-17T09:49:45.870Z,15.75
2022-12-17T09:55:10.893Z,16.00
2022-12-17T10:00:43.818Z,15.25
2022-12-17T10:06:08.002Z,15.00
2022-12-17T10:11:50.378Z,15.00
2022-12-17T10:17:13.412Z,15.00
2022-12-17T10:22:39.340Z,14.75
2022-12-17T10:28:02.319Z,20.50
2022-12-17T10:33:25.874Z,18.25
2022-12-17T10:38:50.392Z,15.00
2022-12-17T10:44:13.275Z,16.00
2022-12-17T10:49:40.801Z,18.75
2022-12-17T10:55:04.171Z,16.25
2022-12-17T11:00:47.394Z,20.00
2022-12-17T11:06:14.781Z,14.75
2022-12-17T11:11:37.835Z,20.75
2022-12-17T11:17:03.614Z,15.75
2022-12-17T11:22:31.588Z,17.00
2022-12-17T11:28:01.768Z,16.00
2022-12-17T11:33:32.110Z,21.25
2022-12-17T11:38:59.102Z,17.25
2022-12-17T11:44:35.281Z,18.50
2022-12-17T11:49:58.968Z,15.00
2022-12-17T11:55:53.468Z,17.75
2022-12-17T12:01:22.168Z,20.00
2022-12-17T12:07:07.603Z,16.25
2022-12-17T12:12:43.883Z,18.25
2022-12-17T12:18:06.157Z,15.00
2022-12-17T12:23:40.699Z,20.25
2022-12-17T12:29:18.163Z,18.25
2022-12-17T12:34:44.259Z,16.00
2022-12-17T12:40:12.788Z,18.25
2022-12-17T12:45:54.484Z,19.00
2022-12-17T12:51:20.991Z,17.25
2022-12-17T12:57:01.268Z,17.00
2022-12-17T13:02:32.885Z,18.25
2022-12-17T13:07:37.929Z,25.25
2022-12-17T13:12:46.202Z,17.00
2022-12-17T13:18:04.574Z,21.00
2022-12-17T13:23:12.521Z,25.00
2022-12-17T13:28:32.672Z,25.50
2022-12-17T13:33:44.500Z,36.75
2022-12-17T13:38:49.143Z,30.75
2022-12-17T13:44:00.912Z,38.75
2022-12-17T13:49:07.227Z,27.50
2022-12-17T13:54:20.221Z,39.50
2022-12-17T13:59:26.673Z,42.00
2022-12-17T14:04:32.553Z,41.75
2022-12-17T14:09:39.636Z,34.25
2022-12-17T14:14:49.731Z,35.25
2022-12-17T14:19:58.226Z,37.50
2022-12-17T14:25:03.390Z,39.25
2022-12-17T14:30:22.409Z,43.00
2022-12-17T14:35:28.785Z,37.25
2022-12-17T14:40:34.080Z,39.50
2022-12-17T14:45:58.712Z,38.75
2022-12-17T14:51:03.475Z,36.00
2022-12-17T14:56:23.522Z,31.00
2022-12-17T15:01:28.502Z,33.50
2022-12-17T15:06:37.845Z,38.75
2022-12-17T15:11:42.626Z,33.25
2022-12-17T15:16:47.791Z,33.25
2022-12-17T15:21:52.625Z,36.00
2022-12-17T15:26:58.994Z,31.25
2022-12-17T15:32:04.054Z,37.00
2022-12-17T15:37:08.806Z,40.50
2022-12-17T15:42:31.598Z,43.25
2022-12-17T15:47:36.306Z,39.50
2022-12-17T15:52:40.660Z,42.50
2022-12-17T15:57:45.752Z,50.00
2022-12-17T16:02:51.021Z,44.75
2022-12-17T16:08:00.382Z,41.75
2022-12-17T16:13:05.205Z,44.25
2022-12-17T16:18:10.220Z,37.75
2022-12-17T16:23:15.432Z,37.25
2022-12-17T16:28:20.160Z,46.00
2022-12-17T16:33:24.930Z,43.25
2022-12-17T16:38:29.680Z,32.50
2022-12-17T16:43:37.178Z,41.25
2022-12-17T16:48:41.793Z,41.50
2022-12-17T16:53:47.114Z,45.50
2022-12-17T16:58:52.389Z,47.00
2022-12-17T17:03:58.012Z,46.75
2022-12-17T17:09:05.566Z,48.00
2022-12-17T17:14:10.414Z,49.50
2022-12-17T17:19:15.062Z,47.50
2022-12-17T17:24:22.392Z,47.25
2022-12-17T17:29:27.084Z,43.25
2022-12-17T17:34:31.550Z,41.25
2022-12-17T17:39:35.923Z,38.25
2022-12-17T17:44:40.194Z,45.25
2022-12-17T17:49:44.463Z,36.00
2022-12-17T17:54:48.760Z,35.75
2022-12-17T17:59:52.873Z,28.50
2022-12-17T18:04:56.918Z,34.75
2022-12-17T18:10:01.013Z,34.50
2022-12-17T18:15:14.250Z,31.00
2022-12-17T18:20:20.139Z,33.00
2022-12-17T18:25:24.180Z,29.25
2022-12-17T18:30:28.369Z,28.25
2022-12-17T18:35:32.580Z,34.25
2022-12-17T18:40:37.560Z,27.00
2022-12-17T18:45:45.111Z,27.50
2022-12-17T18:50:49.451Z,32.75
2022-12-17T18:55:54.034Z,32.00
2022-12-17T19:01:01.138Z,31.75
2022-12-17T19:06:06.867Z,28.25
2022-12-17T19:11:11.656Z,24.50
2022-12-17T19:16:17.530Z,26.50
2022-12-17T19:21:22.170Z,26.50
2022-12-17T19:26:26.479Z,31.50
2022-12-17T19:31:33.395Z,26.00
2022-12-17T19:36:38.004Z,20.75
2022-12-17T19:41:42.087Z,19.50
2022-12-17T19:46:46.420Z,24.75
2022-12-17T19:51:50.540Z,20.00
2022-12-17T19:56:54.633Z,23.50
2022-12-17T20:01:58.857Z,24.00
2022-12-17T20:07:03.172Z,25.00
2022-12-17T20:12:07.498Z,16.50
2022-12-17T20:17:11.698Z,18.75
2022-12-17T20:22:15.706Z,18.25
2022-12-17T20:27:19.868Z,21.25
2022-12-17T20:32:24.017Z,19.25
2022-12-17T20:37:28.112Z,17.75
2022-12-17T20:42:32.118Z,17.00
2022-12-17T20:47:36.188Z,17.00
2022-12-17T20:52:40.274Z,17.25
2022-12-17T20:57:44.408Z,18.00
2022-12-17T21:02:48.695Z,18.00
2022-12-17T21:07:53.735Z,18.00
2022-12-17T21:13:33.038Z,20.00
2022-12-17T21:18:37.573Z,16.25
2022-12-17T21:23:42.502Z,17.25
2022-12-17T21:28:48.085Z,19.25
2022-12-17T21:33:52.947Z,16.00
2022-12-17T21:38:57.428Z,17.00
2022-12-17T21:44:02.656Z,16.50
2022-12-17T21:49:06.781Z,15.50
2022-12-17T21:54:15.674Z,16.75
2022-12-17T21:59:23.204Z,16.75
2022-12-17T22:04:27.852Z,15.50
2022-12-17T22:09:48.603Z,15.00
2022-12-17T22:14:56.326Z,19.00
2022-12-17T22:20:00.877Z,15.75
2022-12-17T22:25:08.309Z,17.00
2022-12-17T22:30:34.534Z,15.75
2022-12-17T22:37:32.478Z,13.00
2022-12-17T22:44:29.346Z,13.25
2022-12-17T22:46:34.266Z,15.00
2022-12-17T22:51:38.614Z,14.75
2022-12-17T22:57:35.902Z,13.75
2022-12-17T23:02:11.532Z,15.75
2022-12-17T23:07:15.543Z,14.25
2022-12-17T23:12:54.839Z,15.00
2022-12-17T23:18:00.736Z,13.75
2022-12-17T23:23:04.772Z,13.50
2022-12-17T23:28:08.825Z,14.50
2022-12-17T23:33:12.886Z,14.50
2022-12-17T23:38:16.849Z,13.00
2022-12-17T23:43:20.846Z,15.00
2022-12-17T23:48:24.831Z,14.50
2022-12-17T23:53:29.703Z,15.75
2022-12-17T23:58:34.100Z,21.00
